sensor_id;sensor_type;location;lat;lon;timestamp;P1;durP1;ratioP1;P2;durP2;ratioP2
79412;SDS011;68863;49.528;11.010;2023-11-18T00:00:56;10.95;;;4.00;;
79412;SDS011;68863;49.528;11.010;2023-11-18T00:01:58;7.78;;;3.40;;
79412;SDS011;68863;49.528;11.010;2023-11-18T00:02:59;9.35;;;3.53;;
79412;SDS011;68863;49.528;11.010;2023-11-18T00:03:59;8.30;;;3.03;;
79412;SDS011;68863;49.528;11.010;2023-11-18T00:05:00;8.05;;;3.75;;
79412;SDS011;68863;49.528;11.010;2023-11-18T00:06:00;9.90;;;3.88;;
79412;SDS011;68863;49.528;11.010;2023-11-18T00:07:01;7.10;;;3.28;;
79412;SDS011;68863;49.528;11.010;2023-11-18T00:08:01;8.13;;;3.50;;
79412;SDS011;68863;49.528;11.010;2023-11-18T00:09:01;8.32;;;4.13;;
79412;SDS011;68863;49.528;11.010;2023-11-18T00:10:02;8.20;;;3.50;;
79412;SDS011;68863;49.528;11.010;2023-11-18T00:11:23;7.85;;;2.53;;
79412;SDS011;68863;49.528;11.010;2023-11-18T00:12:25;6.88;;;2.92;;
79412;SDS011;68863;49.528;11.010;2023-11-18T00:13:50;5.68;;;3.08;;
79412;SDS011;68863;49.528;11.010;2023-11-18T00:14:51;7.28;;;3.53;;
79412;SDS011;68863;49.528;11.010;2023-11-18T00:16:03;6.43;;;2.90;;
79412;SDS011;68863;49.528;11.010;2023-11-18T00:17:06;6.38;;;3.00;;
79412;SDS011;68863;49.528;11.010;2023-11-18T00:18:06;7.53;;;3.20;;
79412;SDS011;68863;49.528;11.010;2023-11-18T00:19:15;6.95;;;2.85;;
79412;SDS011;68863;49.528;11.010;2023-11-18T00:20:15;8.67;;;3.30;;
79412;SDS011;68863;49.528;11.010;2023-11-18T00:21:24;8.20;;;3.30;;
79412;SDS011;68863;49.528;11.010;2023-11-18T00:25:59;7.70;;;3.25;;
79412;SDS011;68863;49.528;11.010;2023-11-18T00:27:02;8.13;;;3.67;;
79412;SDS011;68863;49.528;11.010;2023-11-18T00:28:06;7.15;;;3.25;;
79412;SDS011;68863;49.528;11.010;2023-11-18T00:29:15;6.88;;;2.88;;
79412;SDS011;68863;49.528;11.010;2023-11-18T00:32:12;8.93;;;3.28;;
79412;SDS011;68863;49.528;11.010;2023-11-18T00:33:22;7.95;;;3.63;;
79412;SDS011;68863;49.528;11.010;2023-11-18T00:34:47;8.80;;;2.95;;
79412;SDS011;68863;49.528;11.010;2023-11-18T00:36:10;7.05;;;2.53;;
79412;SDS011;68863;49.528;11.010;2023-11-18T00:37:10;7.73;;;3.13;;
79412;SDS011;68863;49.528;11.010;2023-11-18T00:38:21;7.43;;;2.22;;
79412;SDS011;68863;49.528;11.010;2023-11-18T00:43:15;5.78;;;1.80;;
79412;SDS011;68863;49.528;11.010;2023-11-18T00:44:15;7.27;;;2.60;;
79412;SDS011;68863;49.528;11.010;2023-11-18T00:45:16;5.97;;;2.10;;
79412;SDS011;68863;49.528;11.010;2023-11-18T00:46:16;6.17;;;2.50;;
79412;SDS011;68863;49.528;11.010;2023-11-18T00:47:17;5.57;;;2.25;;
79412;SDS011;68863;49.528;11.010;2023-11-18T00:48:18;6.28;;;2.22;;
79412;SDS011;68863;49.528;11.010;2023-11-18T00:49:18;6.87;;;2.20;;
79412;SDS011;68863;49.528;11.010;2023-11-18T00:50:19;9.07;;;2.80;;
79412;SDS011;68863;49.528;11.010;2023-11-18T00:51:19;7.33;;;2.63;;
79412;SDS011;68863;49.528;11.010;2023-11-18T00:52:19;7.33;;;2.60;;
79412;SDS011;68863;49.528;11.010;2023-11-18T00:53:19;7.43;;;2.53;;
79412;SDS011;68863;49.528;11.010;2023-11-18T00:54:20;6.63;;;2.28;;
79412;SDS011;68863;49.528;11.010;2023-11-18T00:55:20;7.10;;;2.10;;
79412;SDS011;68863;49.528;11.010;2023-11-18T00:56:20;7.60;;;2.60;;
79412;SDS011;68863;49.528;11.010;2023-11-18T00:57:21;6.45;;;2.33;;
79412;SDS011;68863;49.528;11.010;2023-11-18T00:58:21;6.30;;;2.28;;
79412;SDS011;68863;49.528;11.010;2023-11-18T00:59:22;5.75;;;2.83;;
79412;SDS011;68863;49.528;11.010;2023-11-18T01:00:22;7.38;;;2.10;;
79412;SDS011;68863;49.528;11.010;2023-11-18T01:01:22;7.05;;;2.17;;
79412;SDS011;68863;49.528;11.010;2023-11-18T01:02:23;5.88;;;2.30;;
79412;SDS011;68863;49.528;11.010;2023-11-18T01:03:23;6.03;;;2.27;;
79412;SDS011;68863;49.528;11.010;2023-11-18T01:04:23;5.70;;;2.33;;
79412;SDS011;68863;49.528;11.010;2023-11-18T01:05:37;5.80;;;2.10;;
79412;SDS011;68863;49.528;11.010;2023-11-18T01:07:35;5.63;;;2.00;;
79412;SDS011;68863;49.528;11.010;2023-11-18T01:08:36;6.55;;;2.40;;
79412;SDS011;68863;49.528;11.010;2023-11-18T01:09:36;6.80;;;2.30;;
79412;SDS011;68863;49.528;11.010;2023-11-18T01:10:38;6.22;;;2.42;;
79412;SDS011;68863;49.528;11.010;2023-11-18T01:11:38;5.83;;;2.77;;
79412;SDS011;68863;49.528;11.010;2023-11-18T01:12:39;5.57;;;2.50;;
79412;SDS011;68863;49.528;11.010;2023-11-18T01:13:40;5.07;;;1.80;;
79412;SDS011;68863;49.528;11.010;2023-11-18T01:14:40;6.03;;;2.20;;
79412;SDS011;68863;49.528;11.010;2023-11-18T01:15:41;5.68;;;2.13;;
79412;SDS011;68863;49.528;11.010;2023-11-18T01:16:42;4.82;;;1.95;;
79412;SDS011;68863;49.528;11.010;2023-11-18T01:17:43;6.03;;;2.25;;
79412;SDS011;68863;49.528;11.010;2023-11-18T01:18:44;5.47;;;2.30;;
79412;SDS011;68863;49.528;11.010;2023-11-18T01:19:45;6.25;;;2.00;;
79412;SDS011;68863;49.528;11.010;2023-11-18T01:20:46;6.00;;;2.40;;
79412;SDS011;68863;49.528;11.010;2023-11-18T01:21:47;7.22;;;2.50;;
79412;SDS011;68863;49.528;11.010;2023-11-18T01:22:47;5.55;;;2.47;;
79412;SDS011;68863;49.528;11.010;2023-11-18T01:23:48;5.25;;;2.20;;
79412;SDS011;68863;49.528;11.010;2023-11-18T01:24:49;6.68;;;2.13;;
79412;SDS011;68863;49.528;11.010;2023-11-18T01:25:51;6.03;;;1.98;;
79412;SDS011;68863;49.528;11.010;2023-11-18T01:26:51;6.38;;;2.05;;
79412;SDS011;68863;49.528;11.010;2023-11-18T01:27:51;6.65;;;2.40;;
79412;SDS011;68863;49.528;11.010;2023-11-18T01:28:51;6.35;;;2.30;;
79412;SDS011;68863;49.528;11.010;2023-11-18T01:29:52;5.50;;;2.27;;
79412;SDS011;68863;49.528;11.010;2023-11-18T01:30:52;6.30;;;2.33;;
79412;SDS011;68863;49.528;11.010;2023-11-18T01:31:52;5.50;;;2.27;;
79412;SDS011;68863;49.528;11.010;2023-11-18T01:32:55;7.00;;;2.75;;
79412;SDS011;68863;49.528;11.010;2023-11-18T01:33:56;6.13;;;2.33;;
79412;SDS011;68863;49.528;11.010;2023-11-18T01:34:57;5.53;;;2.03;;
79412;SDS011;68863;49.528;11.010;2023-11-18T01:35:57;5.78;;;2.13;;
79412;SDS011;68863;49.528;11.010;2023-11-18T01:36:57;4.70;;;1.73;;
79412;SDS011;68863;49.528;11.010;2023-11-18T01:37:57;6.18;;;2.30;;
79412;SDS011;68863;49.528;11.010;2023-11-18T01:38:58;6.93;;;2.20;;
79412;SDS011;68863;49.528;11.010;2023-11-18T01:39:58;5.93;;;2.33;;
79412;SDS011;68863;49.528;11.010;2023-11-18T01:40:58;5.87;;;1.93;;
79412;SDS011;68863;49.528;11.010;2023-11-18T01:42:00;5.72;;;2.00;;
79412;SDS011;68863;49.528;11.010;2023-11-18T01:43:00;5.00;;;2.00;;
79412;SDS011;68863;49.528;11.010;2023-11-18T01:44:01;4.88;;;1.80;;
79412;SDS011;68863;49.528;11.010;2023-11-18T01:45:01;5.28;;;2.15;;
79412;SDS011;68863;49.528;11.010;2023-11-18T01:46:04;5.45;;;1.98;;
79412;SDS011;68863;49.528;11.010;2023-11-18T01:47:07;7.30;;;2.20;;
79412;SDS011;68863;49.528;11.010;2023-11-18T01:48:12;5.85;;;2.00;;
79412;SDS011;68863;49.528;11.010;2023-11-18T01:49:13;6.05;;;2.15;;
79412;SDS011;68863;49.528;11.010;2023-11-18T01:50:14;5.70;;;2.33;;
79412;SDS011;68863;49.528;11.010;2023-11-18T01:51:17;6.72;;;2.25;;
79412;SDS011;68863;49.528;11.010;2023-11-18T01:52:19;6.38;;;1.98;;
79412;SDS011;68863;49.528;11.010;2023-11-18T01:53:21;6.63;;;2.53;;
79412;SDS011;68863;49.528;11.010;2023-11-18T01:54:22;6.60;;;2.57;;
79412;SDS011;68863;49.528;11.010;2023-11-18T01:55:23;6.47;;;2.50;;
79412;SDS011;68863;49.528;11.010;2023-11-18T01:56:24;6.00;;;2.37;;
79412;SDS011;68863;49.528;11.010;2023-11-18T01:57:25;9.20;;;2.92;;
79412;SDS011;68863;49.528;11.010;2023-11-18T01:58:27;7.25;;;3.03;;
79412;SDS011;68863;49.528;11.010;2023-11-18T01:59:27;7.57;;;2.50;;
79412;SDS011;68863;49.528;11.010;2023-11-18T02:01:30;5.78;;;2.13;;
79412;SDS011;68863;49.528;11.010;2023-11-18T02:02:31;6.38;;;2.35;;
79412;SDS011;68863;49.528;11.010;2023-11-18T02:03:32;6.72;;;2.70;;
79412;SDS011;68863;49.528;11.010;2023-11-18T02:04:33;5.78;;;2.35;;
79412;SDS011;68863;49.528;11.010;2023-11-18T02:05:33;5.82;;;2.08;;
79412;SDS011;68863;49.528;11.010;2023-11-18T02:06:37;6.63;;;2.33;;
79412;SDS011;68863;49.528;11.010;2023-11-18T02:07:37;6.28;;;2.42;;
79412;SDS011;68863;49.528;11.010;2023-11-18T02:08:38;4.88;;;2.20;;
79412;SDS011;68863;49.528;11.010;2023-11-18T02:09:38;6.15;;;2.40;;
79412;SDS011;68863;49.528;11.010;2023-11-18T02:10:45;8.30;;;2.22;;
79412;SDS011;68863;49.528;11.010;2023-11-18T02:11:51;5.45;;;1.98;;
79412;SDS011;68863;49.528;11.010;2023-11-18T02:12:58;6.03;;;1.75;;
79412;SDS011;68863;49.528;11.010;2023-11-18T02:14:06;5.78;;;2.03;;
79412;SDS011;68863;49.528;11.010;2023-11-18T02:15:10;6.10;;;2.42;;
79412;SDS011;68863;49.528;11.010;2023-11-18T02:16:12;5.00;;;2.33;;
79412;SDS011;68863;49.528;11.010;2023-11-18T02:17:14;5.50;;;2.17;;
79412;SDS011;68863;49.528;11.010;2023-11-18T02:19:24;5.13;;;2.00;;
79412;SDS011;68863;49.528;11.010;2023-11-18T02:20:26;6.20;;;2.50;;
79412;SDS011;68863;49.528;11.010;2023-11-18T02:21:28;5.95;;;2.13;;
79412;SDS011;68863;49.528;11.010;2023-11-18T02:23:31;7.82;;;2.58;;
79412;SDS011;68863;49.528;11.010;2023-11-18T02:24:31;6.38;;;2.05;;
79412;SDS011;68863;49.528;11.010;2023-11-18T02:25:40;7.10;;;2.30;;
79412;SDS011;68863;49.528;11.010;2023-11-18T02:26:44;7.88;;;1.88;;
79412;SDS011;68863;49.528;11.010;2023-11-18T02:27:45;5.38;;;1.92;;
79412;SDS011;68863;49.528;11.010;2023-11-18T02:28:47;5.15;;;1.95;;
79412;SDS011;68863;49.528;11.010;2023-11-18T02:29:49;6.43;;;2.45;;
79412;SDS011;68863;49.528;11.010;2023-11-18T02:30:52;5.53;;;2.03;;
79412;SDS011;68863;49.528;11.010;2023-11-18T02:32:00;6.88;;;2.00;;
79412;SDS011;68863;49.528;11.010;2023-11-18T02:33:24;6.18;;;2.00;;
79412;SDS011;68863;49.528;11.010;2023-11-18T02:34:33;5.63;;;1.85;;
79412;SDS011;68863;49.528;11.010;2023-11-18T02:35:51;5.88;;;1.95;;
79412;SDS011;68863;49.528;11.010;2023-11-18T02:36:53;6.82;;;1.88;;
79412;SDS011;68863;49.528;11.010;2023-11-18T02:37:59;5.90;;;2.10;;
79412;SDS011;68863;49.528;11.010;2023-11-18T02:39:06;6.25;;;1.83;;
79412;SDS011;68863;49.528;11.010;2023-11-18T02:40:11;4.15;;;1.88;;
79412;SDS011;68863;49.528;11.010;2023-11-18T02:41:19;4.72;;;1.95;;
79412;SDS011;68863;49.528;11.010;2023-11-18T02:42:20;5.93;;;1.90;;
79412;SDS011;68863;49.528;11.010;2023-11-18T02:43:23;6.00;;;1.75;;
79412;SDS011;68863;49.528;11.010;2023-11-18T02:45:25;4.65;;;1.52;;
79412;SDS011;68863;49.528;11.010;2023-11-18T02:46:27;4.13;;;1.50;;
79412;SDS011;68863;49.528;11.010;2023-11-18T02:47:27;5.03;;;1.52;;
79412;SDS011;68863;49.528;11.010;2023-11-18T02:48:28;5.72;;;1.85;;
79412;SDS011;68863;49.528;11.010;2023-11-18T02:49:29;6.20;;;1.83;;
79412;SDS011;68863;49.528;11.010;2023-11-18T02:50:29;4.75;;;1.80;;
79412;SDS011;68863;49.528;11.010;2023-11-18T02:51:30;4.20;;;1.70;;
79412;SDS011;68863;49.528;11.010;2023-11-18T02:52:41;7.40;;;2.33;;
79412;SDS011;68863;49.528;11.010;2023-11-18T02:53:42;7.10;;;2.50;;
79412;SDS011;68863;49.528;11.010;2023-11-18T02:54:45;7.68;;;2.42;;
79412;SDS011;68863;49.528;11.010;2023-11-18T02:55:45;9.50;;;2.87;;
79412;SDS011;68863;49.528;11.010;2023-11-18T02:56:46;7.00;;;2.15;;
79412;SDS011;68863;49.528;11.010;2023-11-18T02:57:46;5.68;;;1.88;;
79412;SDS011;68863;49.528;11.010;2023-11-18T02:58:47;6.38;;;2.10;;
79412;SDS011;68863;49.528;11.010;2023-11-18T02:59:47;6.82;;;2.13;;
79412;SDS011;68863;49.528;11.010;2023-11-18T03:00:47;5.47;;;2.10;;
79412;SDS011;68863;49.528;11.010;2023-11-18T03:01:48;6.78;;;2.08;;
79412;SDS011;68863;49.528;11.010;2023-11-18T03:02:48;6.18;;;2.20;;
79412;SDS011;68863;49.528;11.010;2023-11-18T03:03:50;7.47;;;2.08;;
79412;SDS011;68863;49.528;11.010;2023-11-18T03:04:50;5.05;;;1.77;;
79412;SDS011;68863;49.528;11.010;2023-11-18T03:05:50;6.33;;;2.23;;
79412;SDS011;68863;49.528;11.010;2023-11-18T03:06:50;5.20;;;1.90;;
79412;SDS011;68863;49.528;11.010;2023-11-18T03:07:51;4.80;;;1.93;;
79412;SDS011;68863;49.528;11.010;2023-11-18T03:09:54;4.85;;;1.67;;
79412;SDS011;68863;49.528;11.010;2023-11-18T03:10:57;4.25;;;1.98;;
79412;SDS011;68863;49.528;11.010;2023-11-18T03:11:58;6.05;;;2.08;;
79412;SDS011;68863;49.528;11.010;2023-11-18T03:12:59;5.25;;;1.73;;
79412;SDS011;68863;49.528;11.010;2023-11-18T03:13:59;5.43;;;2.07;;
79412;SDS011;68863;49.528;11.010;2023-11-18T03:15:06;5.75;;;1.90;;
79412;SDS011;68863;49.528;11.010;2023-11-18T03:16:09;5.30;;;1.88;;
79412;SDS011;68863;49.528;11.010;2023-11-18T03:17:11;5.32;;;1.88;;
79412;SDS011;68863;49.528;11.010;2023-11-18T03:18:11;5.70;;;2.20;;
79412;SDS011;68863;49.528;11.010;2023-11-18T03:19:12;4.93;;;2.08;;
79412;SDS011;68863;49.528;11.010;2023-11-18T03:20:14;5.97;;;1.77;;
79412;SDS011;68863;49.528;11.010;2023-11-18T03:21:17;5.05;;;1.73;;
79412;SDS011;68863;49.528;11.010;2023-11-18T03:22:19;5.65;;;1.85;;
79412;SDS011;68863;49.528;11.010;2023-11-18T03:23:19;5.57;;;1.60;;
79412;SDS011;68863;49.528;11.010;2023-11-18T03:24:19;6.80;;;2.30;;
79412;SDS011;68863;49.528;11.010;2023-11-18T03:25:20;4.90;;;2.10;;
79412;SDS011;68863;49.528;11.010;2023-11-18T03:26:21;5.85;;;1.70;;
79412;SDS011;68863;49.528;11.010;2023-11-18T03:27:22;5.23;;;1.43;;
79412;SDS011;68863;49.528;11.010;2023-11-18T03:28:23;4.88;;;1.60;;
79412;SDS011;68863;49.528;11.010;2023-11-18T03:29:23;5.15;;;2.03;;
79412;SDS011;68863;49.528;11.010;2023-11-18T03:30:23;5.95;;;1.67;;
79412;SDS011;68863;49.528;11.010;2023-11-18T03:31:24;5.82;;;1.83;;
79412;SDS011;68863;49.528;11.010;2023-11-18T03:32:24;6.37;;;2.00;;
79412;SDS011;68863;49.528;11.010;2023-11-18T03:33:24;6.85;;;1.98;;
79412;SDS011;68863;49.528;11.010;2023-11-18T03:34:25;6.38;;;1.95;;
79412;SDS011;68863;49.528;11.010;2023-11-18T03:35:25;6.50;;;1.67;;
79412;SDS011;68863;49.528;11.010;2023-11-18T03:36:25;4.82;;;1.88;;
79412;SDS011;68863;49.528;11.010;2023-11-18T03:37:26;4.72;;;1.73;;
79412;SDS011;68863;49.528;11.010;2023-11-18T03:38:26;6.93;;;1.90;;
79412;SDS011;68863;49.528;11.010;2023-11-18T03:39:29;8.77;;;2.10;;
79412;SDS011;68863;49.528;11.010;2023-11-18T03:40:30;4.63;;;1.73;;
79412;SDS011;68863;49.528;11.010;2023-11-18T03:41:30;6.70;;;1.98;;
79412;SDS011;68863;49.528;11.010;2023-11-18T03:42:31;5.77;;;1.70;;
79412;SDS011;68863;49.528;11.010;2023-11-18T03:43:31;5.57;;;1.90;;
79412;SDS011;68863;49.528;11.010;2023-11-18T03:44:31;5.07;;;1.60;;
79412;SDS011;68863;49.528;11.010;2023-11-18T03:45:32;4.70;;;1.40;;
79412;SDS011;68863;49.528;11.010;2023-11-18T03:46:32;4.67;;;1.40;;
79412;SDS011;68863;49.528;11.010;2023-11-18T03:47:34;6.25;;;1.75;;
79412;SDS011;68863;49.528;11.010;2023-11-18T03:48:34;4.17;;;1.37;;
79412;SDS011;68863;49.528;11.010;2023-11-18T03:49:34;5.10;;;1.42;;
79412;SDS011;68863;49.528;11.010;2023-11-18T03:50:34;4.90;;;1.55;;
79412;SDS011;68863;49.528;11.010;2023-11-18T03:51:35;5.27;;;1.60;;
79412;SDS011;68863;49.528;11.010;2023-11-18T03:52:35;5.53;;;1.52;;
79412;SDS011;68863;49.528;11.010;2023-11-18T03:53:37;4.28;;;1.50;;
79412;SDS011;68863;49.528;11.010;2023-11-18T03:54:38;4.00;;;1.60;;
79412;SDS011;68863;49.528;11.010;2023-11-18T03:55:38;5.13;;;1.57;;
79412;SDS011;68863;49.528;11.010;2023-11-18T03:56:38;6.20;;;1.70;;
79412;SDS011;68863;49.528;11.010;2023-11-18T03:57:39;6.22;;;1.40;;
79412;SDS011;68863;49.528;11.010;2023-11-18T03:58:39;3.97;;;1.30;;
79412;SDS011;68863;49.528;11.010;2023-11-18T03:59:40;6.13;;;1.65;;
79412;SDS011;68863;49.528;11.010;2023-11-18T04:00:41;4.70;;;1.65;;
79412;SDS011;68863;49.528;11.010;2023-11-18T04:01:41;4.55;;;1.60;;
79412;SDS011;68863;49.528;11.010;2023-11-18T04:02:41;5.20;;;1.67;;
79412;SDS011;68863;49.528;11.010;2023-11-18T04:03:42;4.50;;;1.60;;
79412;SDS011;68863;49.528;11.010;2023-11-18T04:04:42;6.32;;;1.90;;
79412;SDS011;68863;49.528;11.010;2023-11-18T04:05:42;5.40;;;1.75;;
79412;SDS011;68863;49.528;11.010;2023-11-18T04:06:43;5.20;;;2.08;;
79412;SDS011;68863;49.528;11.010;2023-11-18T04:07:43;4.60;;;1.65;;
79412;SDS011;68863;49.528;11.010;2023-11-18T04:08:47;5.10;;;1.67;;
79412;SDS011;68863;49.528;11.010;2023-11-18T04:09:48;5.45;;;1.92;;
79412;SDS011;68863;49.528;11.010;2023-11-18T04:10:48;5.05;;;1.50;;
79412;SDS011;68863;49.528;11.010;2023-11-18T04:11:48;5.63;;;1.88;;
79412;SDS011;68863;49.528;11.010;2023-11-18T04:12:49;4.50;;;1.63;;
79412;SDS011;68863;49.528;11.010;2023-11-18T04:13:49;4.03;;;1.55;;
79412;SDS011;68863;49.528;11.010;2023-11-18T04:14:49;5.53;;;1.98;;
79412;SDS011;68863;49.528;11.010;2023-11-18T04:15:49;4.78;;;1.38;;
79412;SDS011;68863;49.528;11.010;2023-11-18T04:16:50;4.43;;;1.33;;
79412;SDS011;68863;49.528;11.010;2023-11-18T04:17:50;3.75;;;1.55;;
79412;SDS011;68863;49.528;11.010;2023-11-18T04:18:52;3.92;;;1.23;;
79412;SDS011;68863;49.528;11.010;2023-11-18T04:19:52;4.32;;;1.23;;
79412;SDS011;68863;49.528;11.010;2023-11-18T04:20:55;4.47;;;1.65;;
79412;SDS011;68863;49.528;11.010;2023-11-18T04:21:58;4.78;;;1.45;;
79412;SDS011;68863;49.528;11.010;2023-11-18T04:22:58;5.95;;;1.60;;
79412;SDS011;68863;49.528;11.010;2023-11-18T04:23:59;4.40;;;1.33;;
79412;SDS011;68863;49.528;11.010;2023-11-18T04:24:59;5.03;;;1.30;;
79412;SDS011;68863;49.528;11.010;2023-11-18T04:26:01;5.60;;;1.88;;
79412;SDS011;68863;49.528;11.010;2023-11-18T04:27:02;7.07;;;1.77;;
79412;SDS011;68863;49.528;11.010;2023-11-18T04:28:02;4.63;;;1.83;;
79412;SDS011;68863;49.528;11.010;2023-11-18T04:29:04;5.22;;;1.63;;
79412;SDS011;68863;49.528;11.010;2023-11-18T04:30:04;5.60;;;1.80;;
79412;SDS011;68863;49.528;11.010;2023-11-18T04:31:05;4.88;;;1.27;;
79412;SDS011;68863;49.528;11.010;2023-11-18T04:32:06;4.85;;;1.60;;
79412;SDS011;68863;49.528;11.010;2023-11-18T04:33:08;4.82;;;1.40;;
79412;SDS011;68863;49.528;11.010;2023-11-18T04:34:08;5.70;;;1.67;;
79412;SDS011;68863;49.528;11.010;2023-11-18T04:35:09;4.47;;;1.40;;
79412;SDS011;68863;49.528;11.010;2023-11-18T04:36:10;4.45;;;1.75;;
79412;SDS011;68863;49.528;11.010;2023-11-18T04:37:10;4.97;;;1.13;;
79412;SDS011;68863;49.528;11.010;2023-11-18T04:38:10;4.97;;;1.80;;
79412;SDS011;68863;49.528;11.010;2023-11-18T04:39:10;4.87;;;1.57;;
79412;SDS011;68863;49.528;11.010;2023-11-18T04:40:12;5.25;;;1.70;;
79412;SDS011;68863;49.528;11.010;2023-11-18T04:41:12;5.20;;;1.88;;
79412;SDS011;68863;49.528;11.010;2023-11-18T04:42:12;4.82;;;1.73;;
79412;SDS011;68863;49.528;11.010;2023-11-18T04:43:12;6.75;;;1.77;;
79412;SDS011;68863;49.528;11.010;2023-11-18T04:44:13;6.45;;;2.00;;
79412;SDS011;68863;49.528;11.010;2023-11-18T04:45:14;4.82;;;1.30;;
79412;SDS011;68863;49.528;11.010;2023-11-18T04:46:16;4.82;;;1.92;;
79412;SDS011;68863;49.528;11.010;2023-11-18T04:47:16;4.50;;;1.77;;
79412;SDS011;68863;49.528;11.010;2023-11-18T04:48:18;4.25;;;1.60;;
79412;SDS011;68863;49.528;11.010;2023-11-18T04:49:21;4.40;;;1.70;;
79412;SDS011;68863;49.528;11.010;2023-11-18T04:50:21;6.30;;;1.90;;
79412;SDS011;68863;49.528;11.010;2023-11-18T04:51:21;4.28;;;1.70;;
79412;SDS011;68863;49.528;11.010;2023-11-18T04:52:25;4.93;;;1.77;;
79412;SDS011;68863;49.528;11.010;2023-11-18T04:53:26;6.45;;;2.20;;
79412;SDS011;68863;49.528;11.010;2023-11-18T04:54:27;4.30;;;2.00;;
79412;SDS011;68863;49.528;11.010;2023-11-18T04:55:27;4.90;;;1.63;;
79412;SDS011;68863;49.528;11.010;2023-11-18T04:56:28;5.93;;;2.08;;
79412;SDS011;68863;49.528;11.010;2023-11-18T04:57:29;5.70;;;2.00;;
79412;SDS011;68863;49.528;11.010;2023-11-18T04:58:29;4.80;;;1.55;;
79412;SDS011;68863;49.528;11.010;2023-11-18T04:59:29;4.20;;;1.67;;
79412;SDS011;68863;49.528;11.010;2023-11-18T05:00:34;4.60;;;1.63;;
79412;SDS011;68863;49.528;11.010;2023-11-18T05:01:34;5.13;;;1.98;;
79412;SDS011;68863;49.528;11.010;2023-11-18T05:02:39;4.47;;;1.52;;
79412;SDS011;68863;49.528;11.010;2023-11-18T05:03:40;4.70;;;1.50;;
79412;SDS011;68863;49.528;11.010;2023-11-18T05:04:40;6.10;;;2.25;;
79412;SDS011;68863;49.528;11.010;2023-11-18T05:05:41;6.03;;;1.77;;
79412;SDS011;68863;49.528;11.010;2023-11-18T05:06:41;5.20;;;2.05;;
79412;SDS011;68863;49.528;11.010;2023-11-18T05:07:41;4.03;;;1.50;;
79412;SDS011;68863;49.528;11.010;2023-11-18T05:08:42;5.05;;;2.10;;
79412;SDS011;68863;49.528;11.010;2023-11-18T05:09:42;5.63;;;2.17;;
79412;SDS011;68863;49.528;11.010;2023-11-18T05:10:45;4.35;;;1.67;;
79412;SDS011;68863;49.528;11.010;2023-11-18T05:11:46;6.22;;;1.73;;
79412;SDS011;68863;49.528;11.010;2023-11-18T05:12:46;4.27;;;1.37;;
79412;SDS011;68863;49.528;11.010;2023-11-18T05:13:56;4.65;;;1.38;;
79412;SDS011;68863;49.528;11.010;2023-11-18T05:14:56;4.88;;;1.52;;
79412;SDS011;68863;49.528;11.010;2023-11-18T05:15:57;3.88;;;1.42;;
79412;SDS011;68863;49.528;11.010;2023-11-18T05:16:57;5.65;;;1.67;;
79412;SDS011;68863;49.528;11.010;2023-11-18T05:17:57;5.07;;;1.65;;
79412;SDS011;68863;49.528;11.010;2023-11-18T05:18:58;6.05;;;1.60;;
79412;SDS011;68863;49.528;11.010;2023-11-18T05:19:58;5.00;;;2.08;;
79412;SDS011;68863;49.528;11.010;2023-11-18T05:21:00;5.55;;;1.50;;
79412;SDS011;68863;49.528;11.010;2023-11-18T05:22:02;6.72;;;1.92;;
79412;SDS011;68863;49.528;11.010;2023-11-18T05:23:49;4.07;;;1.42;;
79412;SDS011;68863;49.528;11.010;2023-11-18T05:24:49;5.43;;;1.65;;
79412;SDS011;68863;49.528;11.010;2023-11-18T05:25:49;5.20;;;1.57;;
79412;SDS011;68863;49.528;11.010;2023-11-18T05:26:50;5.40;;;2.10;;
79412;SDS011;68863;49.528;11.010;2023-11-18T05:27:50;4.95;;;1.70;;
79412;SDS011;68863;49.528;11.010;2023-11-18T05:28:50;5.65;;;1.75;;
79412;SDS011;68863;49.528;11.010;2023-11-18T05:29:51;5.80;;;1.67;;
79412;SDS011;68863;49.528;11.010;2023-11-18T05:30:54;6.65;;;1.80;;
79412;SDS011;68863;49.528;11.010;2023-11-18T05:31:57;4.50;;;1.55;;
79412;SDS011;68863;49.528;11.010;2023-11-18T05:32:58;5.50;;;1.83;;
79412;SDS011;68863;49.528;11.010;2023-11-18T05:33:58;5.07;;;1.70;;
79412;SDS011;68863;49.528;11.010;2023-11-18T05:34:58;5.03;;;1.55;;
79412;SDS011;68863;49.528;11.010;2023-11-18T05:35:59;4.43;;;1.80;;
79412;SDS011;68863;49.528;11.010;2023-11-18T05:36:59;4.65;;;1.65;;
79412;SDS011;68863;49.528;11.010;2023-11-18T05:38:01;3.88;;;1.60;;
79412;SDS011;68863;49.528;11.010;2023-11-18T05:39:03;5.82;;;1.52;;
79412;SDS011;68863;49.528;11.010;2023-11-18T05:40:05;4.70;;;1.50;;
79412;SDS011;68863;49.528;11.010;2023-11-18T05:41:06;4.78;;;1.77;;
79412;SDS011;68863;49.528;11.010;2023-11-18T05:42:16;4.97;;;1.52;;
79412;SDS011;68863;49.528;11.010;2023-11-18T05:43:16;4.95;;;1.67;;
79412;SDS011;68863;49.528;11.010;2023-11-18T05:44:19;6.30;;;1.75;;
79412;SDS011;68863;49.528;11.010;2023-11-18T05:45:21;5.65;;;1.67;;
79412;SDS011;68863;49.528;11.010;2023-11-18T05:46:27;5.90;;;1.95;;
79412;SDS011;68863;49.528;11.010;2023-11-18T05:47:29;4.40;;;1.65;;
79412;SDS011;68863;49.528;11.010;2023-11-18T05:48:30;4.72;;;1.75;;
79412;SDS011;68863;49.528;11.010;2023-11-18T05:49:32;4.97;;;2.08;;
79412;SDS011;68863;49.528;11.010;2023-11-18T05:50:33;5.75;;;1.85;;
79412;SDS011;68863;49.528;11.010;2023-11-18T05:51:34;4.65;;;1.92;;
79412;SDS011;68863;49.528;11.010;2023-11-18T05:52:41;4.45;;;1.40;;
79412;SDS011;68863;49.528;11.010;2023-11-18T05:54:04;4.63;;;1.63;;
79412;SDS011;68863;49.528;11.010;2023-11-18T05:55:05;5.65;;;1.90;;
79412;SDS011;68863;49.528;11.010;2023-11-18T05:56:06;5.20;;;1.73;;
79412;SDS011;68863;49.528;11.010;2023-11-18T05:57:16;4.75;;;1.90;;
79412;SDS011;68863;49.528;11.010;2023-11-18T05:58:16;4.80;;;1.70;;
79412;SDS011;68863;49.528;11.010;2023-11-18T06:00:40;5.47;;;1.63;;
79412;SDS011;68863;49.528;11.010;2023-11-18T06:01:41;4.40;;;1.33;;
79412;SDS011;68863;49.528;11.010;2023-11-18T06:02:42;5.50;;;1.83;;
79412;SDS011;68863;49.528;11.010;2023-11-18T06:03:42;5.40;;;2.10;;
79412;SDS011;68863;49.528;11.010;2023-11-18T06:04:44;5.47;;;1.80;;
79412;SDS011;68863;49.528;11.010;2023-11-18T06:05:44;5.63;;;1.92;;
79412;SDS011;68863;49.528;11.010;2023-11-18T06:06:45;4.50;;;1.65;;
79412;SDS011;68863;49.528;11.010;2023-11-18T06:08:11;4.90;;;1.40;;
79412;SDS011;68863;49.528;11.010;2023-11-18T06:09:14;4.93;;;1.63;;
79412;SDS011;68863;49.528;11.010;2023-11-18T06:10:30;4.60;;;1.60;;
79412;SDS011;68863;49.528;11.010;2023-11-18T06:11:32;7.25;;;2.42;;
79412;SDS011;68863;49.528;11.010;2023-11-18T06:12:32;7.07;;;1.92;;
79412;SDS011;68863;49.528;11.010;2023-11-18T06:13:50;4.95;;;1.63;;
79412;SDS011;68863;49.528;11.010;2023-11-18T06:14:51;5.72;;;1.85;;
79412;SDS011;68863;49.528;11.010;2023-11-18T06:16:05;5.03;;;1.52;;
79412;SDS011;68863;49.528;11.010;2023-11-18T06:17:06;4.40;;;1.33;;
79412;SDS011;68863;49.528;11.010;2023-11-18T06:18:08;5.45;;;1.70;;
79412;SDS011;68863;49.528;11.010;2023-11-18T06:19:11;4.63;;;1.80;;
79412;SDS011;68863;49.528;11.010;2023-11-18T06:20:12;5.57;;;1.75;;
79412;SDS011;68863;49.528;11.010;2023-11-18T06:21:14;7.65;;;1.58;;
79412;SDS011;68863;49.528;11.010;2023-11-18T06:22:15;6.50;;;1.88;;
79412;SDS011;68863;49.528;11.010;2023-11-18T06:23:16;5.13;;;1.80;;
79412;SDS011;68863;49.528;11.010;2023-11-18T06:24:19;5.65;;;2.10;;
79412;SDS011;68863;49.528;11.010;2023-11-18T06:25:21;6.28;;;2.10;;
79412;SDS011;68863;49.528;11.010;2023-11-18T06:26:26;5.15;;;1.80;;